Time;durP1;ratioP1;P1;durP2;ratioP2;P2;SDS_P1;SDS_P2;PMS_P1;PMS_P2;Temp;Humidity;BMP_temperature;BMP_pressure;BME280_temperature;BME280_humidity;BME280_pressure;Samples;Min_cycle;Max_cycle;Signal;HPM_P1;HPM_P2
2022/12/17 13:06:41;;;;;;;7.97;4.97;;;1.10;99.90;;;;;;5058647;28;20035;-67
2022/12/17 13:09:16;;;;;;;7.43;4.30;;;1.20;99.90;;;;;;5058502;28;20294;-67
2022/12/17 13:11:48;;;;;;;4.80;3.30;;;1.20;99.90;;;;;;5058436;28;20163;-67
2022/12/17 13:14:22;;;;;;;10.38;5.35;;;1.30;99.90;;;;;;5058391;28;20428;-67
2022/12/17 13:17:00;;;;;;;6.97;4.50;;;1.30;99.90;;;;;;5040435;28;20021;-67
2022/12/17 13:19:36;;;;;;;6.70;4.03;;;1.30;99.90;;;;;;5040391;28;20051;-67
2022/12/17 13:22:14;;;;;;;7.00;4.07;;;1.30;99.90;;;;;;5058187;28;20024;-67
2022/12/17 13:24:45;;;;;;;7.63;4.22;;;1.40;99.90;;;;;;5058299;28;20029;-68
2022/12/17 13:27:38;;;;;;;8.52;5.25;;;1.40;99.90;;;;;;5039749;28;20032;-68
2022/12/17 13:30:21;;;;;;;7.40;5.10;;;1.30;99.90;;;;;;5058081;28;20033;-68
2022/12/17 13:33:12;;;;;;;7.65;4.63;;;1.30;99.90;;;;;;5040227;28;20024;-68
2022/12/17 13:36:00;;;;;;;7.63;4.65;;;1.40;99.90;;;;;;5040135;28;20036;-68
2022/12/17 13:38:41;;;;;;;7.75;4.63;;;1.40;99.90;;;;;;5057687;28;20033;-67
2022/12/17 13:41:12;;;;;;;8.57;4.80;;;1.30;99.90;;;;;;5040016;28;20029;-67
2022/12/17 13:43:44;;;;;;;8.23;4.80;;;1.30;99.90;;;;;;5057811;28;20041;-67
2022/12/17 13:46:43;;;;;;;7.47;4.85;;;1.40;99.90;;;;;;5057965;28;20056;-67
2022/12/17 13:49:29;;;;;;;7.78;4.40;;;1.40;99.90;;;;;;5057639;28;20043;-67
2022/12/17 13:52:13;;;;;;;8.15;4.78;;;1.40;99.90;;;;;;5039996;28;20461;-68
2022/12/17 13:54:39;;;;;;;8.80;5.32;;;1.40;99.90;;;;;;5057768;28;20028;-67
2022/12/17 13:57:19;;;;;;;8.63;5.07;;;1.40;99.90;;;;;;5057540;28;20104;-68
2022/12/17 13:59:56;;;;;;;9.55;4.97;;;1.40;99.90;;;;;;5052979;28;20033;-68
2022/12/17 14:02:29;;;;;;;7.90;5.05;;;1.50;99.90;;;;;;5057367;28;20362;-68
2022/12/17 14:04:57;;;;;;;8.20;4.82;;;1.50;99.90;;;;;;5057631;28;20071;-68
2022/12/17 14:07:25;;;;;;;7.45;4.97;;;1.50;99.90;;;;;;5039544;28;20067;-68
2022/12/17 14:09:51;;;;;;;8.15;4.78;;;1.50;99.90;;;;;;5039381;28;20087;-68
2022/12/17 14:12:22;;;;;;;9.13;5.15;;;1.50;99.90;;;;;;5039328;28;20120;-68
2022/12/17 14:14:58;;;;;;;9.30;5.10;;;1.50;99.90;;;;;;5039620;28;20021;-68
2022/12/17 14:17:34;;;;;;;8.70;5.25;;;1.50;99.90;;;;;;5039348;28;20107;-68
2022/12/17 14:20:10;;;;;;;8.80;4.75;;;1.50;99.90;;;;;;5057426;28;20555;-67
2022/12/17 14:22:43;;;;;;;9.88;5.40;;;1.40;99.90;;;;;;5046941;28;20048;-67
2022/12/17 14:25:20;;;;;;;9.63;5.78;;;1.40;99.90;;;;;;5061911;28;20071;-68
2022/12/17 14:27:56;;;;;;;8.38;4.95;;;1.40;99.90;;;;;;5056962;28;20040;-68
2022/12/17 14:30:40;;;;;;;9.77;5.50;;;1.40;99.90;;;;;;5039275;28;20029;-68
2022/12/17 14:33:29;;;;;;;8.65;4.60;;;1.40;99.90;;;;;;5039030;28;20059;-68
2022/12/17 14:35:56;;;;;;;8.30;4.30;;;1.40;99.90;;;;;;5044377;28;20025;-68
2022/12/17 14:38:23;;;;;;;7.65;4.13;;;1.40;99.90;;;;;;5060085;28;20100;-68
2022/12/17 14:40:49;;;;;;;7.30;4.63;;;1.40;99.90;;;;;;5056986;28;20032;-70
2022/12/17 14:43:15;;;;;;;7.35;4.53;;;1.50;99.90;;;;;;5056884;28;20104;-67
2022/12/17 14:48:59;;;;;;;7.30;4.28;;;1.60;99.90;;;;;;5056819;28;20036;-68
2022/12/17 14:51:40;;;;;;;7.90;4.75;;;1.70;99.90;;;;;;5060429;28;20074;-68
2022/12/17 14:54:12;;;;;;;8.20;5.32;;;1.60;99.90;;;;;;5061182;28;20021;-68
2022/12/17 14:56:39;;;;;;;7.32;4.38;;;1.60;99.90;;;;;;5060980;28;20393;-68
2022/12/17 14:59:20;;;;;;;7.45;4.88;;;1.60;99.90;;;;;;5061095;28;20032;-68
2022/12/17 15:01:46;;;;;;;6.97;4.32;;;1.60;99.90;;;;;;5060953;28;20082;-68
2022/12/17 15:04:13;;;;;;;7.75;4.63;;;1.60;99.90;;;;;;5060806;28;20102;-68
2022/12/17 15:06:39;;;;;;;7.55;4.47;;;1.60;99.90;;;;;;5042908;28;20123;-68
2022/12/17 15:09:05;;;;;;;9.02;4.60;;;1.60;99.90;;;;;;5060765;28;20118;-68
2022/12/17 15:11:30;;;;;;;7.32;4.22;;;1.60;99.90;;;;;;5042518;28;20055;-68
2022/12/17 15:13:56;;;;;;;7.60;4.22;;;1.60;99.90;;;;;;5060712;28;20024;-68
2022/12/17 15:16:22;;;;;;;6.60;4.03;;;1.60;99.90;;;;;;5060741;28;20032;-68
2022/12/17 15:18:47;;;;;;;8.25;4.97;;;1.60;99.90;;;;;;5060509;28;20032;-68
2022/12/17 15:21:13;;;;;;;8.35;5.03;;;1.60;99.90;;;;;;5060703;28;20025;-68
2022/12/17 15:23:42;;;;;;;7.78;4.65;;;1.70;99.90;;;;;;5042601;28;20068;-67
2022/12/17 15:26:08;;;;;;;9.23;4.90;;;1.70;99.90;;;;;;5060493;28;20024;-68
2022/12/17 15:28:34;;;;;;;8.60;5.57;;;1.70;99.90;;;;;;5042094;28;20052;-68
2022/12/17 15:31:00;;;;;;;7.38;4.53;;;1.60;99.70;;;;;;5042459;28;20025;-68
2022/12/17 15:33:25;;;;;;;7.93;4.80;;;1.60;99.90;;;;;;5060109;28;20132;-68
2022/12/17 15:35:51;;;;;;;8.45;4.70;;;1.60;99.80;;;;;;5046976;28;20017;-68
2022/12/17 15:38:17;;;;;;;8.75;4.95;;;1.50;99.70;;;;;;5063117;28;20541;-68
2022/12/17 15:40:42;;;;;;;7.47;4.63;;;1.50;99.70;;;;;;5042406;28;20078;-68
2022/12/17 15:43:11;;;;;;;8.43;4.72;;;1.50;99.50;;;;;;5059931;28;20397;-68
2022/12/17 15:45:45;;;;;;;9.50;5.57;;;1.40;99.40;;;;;;5060438;28;20021;-68
2022/12/17 15:48:13;;;;;;;8.25;5.10;;;1.40;99.40;;;;;;5059927;28;20401;-68
2022/12/17 15:50:39;;;;;;;7.72;4.38;;;1.30;99.60;;;;;;5060194;28;20504;-68
2022/12/17 15:53:05;;;;;;;8.45;4.90;;;1.30;99.60;;;;;;5059943;28;20021;-68
2022/12/17 15:55:31;;;;;;;7.68;4.85;;;1.30;99.60;;;;;;5042069;28;20021;-68
2022/12/17 15:57:56;;;;;;;12.00;5.47;;;1.30;99.70;;;;;;5059636;28;20382;-68
2022/12/17 16:00:23;;;;;;;8.07;4.65;;;1.30;99.80;;;;;;5059503;28;20088;-68
2022/12/17 16:02:49;;;;;;;8.60;5.05;;;1.30;99.90;;;;;;5059511;28;20436;-68
2022/12/17 16:05:16;;;;;;;8.50;5.03;;;1.30;99.90;;;;;;5041935;28;20037;-68
2022/12/17 16:07:44;;;;;;;9.57;5.35;;;1.30;99.90;;;;;;5059495;28;20025;-67
2022/12/17 16:10:12;;;;;;;9.55;5.18;;;1.30;99.90;;;;;;5059701;28;20132;-68
2022/12/17 16:12:38;;;;;;;9.68;5.30;;;1.30;99.80;;;;;;5059364;28;20084;-68
2022/12/17 16:15:05;;;;;;;9.43;5.70;;;1.30;99.80;;;;;;5059806;28;20060;-68
2022/12/17 16:17:31;;;;;;;10.23;5.10;;;1.30;99.80;;;;;;5041487;28;20025;-68
2022/12/17 16:19:57;;;;;;;11.68;6.32;;;1.30;99.90;;;;;;5059582;28;20446;-68
2022/12/17 16:22:22;;;;;;;9.48;5.47;;;1.30;99.90;;;;;;5041440;28;20408;-68
2022/12/17 16:24:48;;;;;;;7.78;5.03;;;1.30;99.70;;;;;;5059550;28;20029;-68
2022/12/17 16:27:16;;;;;;;9.45;5.43;;;1.30;99.90;;;;;;5041129;28;20029;-68
2022/12/17 16:29:42;;;;;;;7.95;4.63;;;1.30;99.90;;;;;;5059474;28;20024;-68
2022/12/17 16:32:08;;;;;;;8.75;4.95;;;1.40;99.90;;;;;;5041176;28;20017;-68
2022/12/17 16:34:34;;;;;;;9.38;5.40;;;1.40;99.90;;;;;;5059429;28;20017;-68
2022/12/17 16:37:00;;;;;;;9.38;5.50;;;1.30;99.70;;;;;;5058986;28;20481;-68
2022/12/17 16:39:26;;;;;;;10.55;6.45;;;1.30;99.90;;;;;;5041344;28;20039;-68
2022/12/17 16:41:52;;;;;;;8.75;5.00;;;1.30;99.60;;;;;;5058764;28;20096;-68
2022/12/17 16:44:17;;;;;;;10.82;5.40;;;1.30;99.90;;;;;;5059008;28;20017;-68
2022/12/17 16:46:45;;;;;;;10.38;5.32;;;1.30;99.90;;;;;;5058836;28;20056;-68
2022/12/17 16:49:19;;;;;;;10.95;6.07;;;1.30;99.80;;;;;;5058781;28;20056;-68
2022/12/17 16:51:47;;;;;;;8.15;4.53;;;1.30;99.90;;;;;;5058889;28;20029;-68
2022/12/17 16:54:16;;;;;;;7.25;4.97;;;1.30;99.90;;;;;;5058976;28;20552;-68
2022/12/17 16:56:43;;;;;;;8.77;5.45;;;1.30;99.90;;;;;;5058792;28;20021;-68
2022/12/17 16:59:09;;;;;;;8.40;4.82;;;1.30;99.90;;;;;;5058779;28;20053;-68
2022/12/17 17:01:36;;;;;;;9.23;5.40;;;1.30;99.90;;;;;;5058737;28;20029;-68
2022/12/17 17:04:04;;;;;;;8.27;5.22;;;1.30;99.90;;;;;;5058578;28;20047;-68
2022/12/17 17:06:29;;;;;;;7.25;4.75;;;1.30;99.90;;;;;;5058753;28;20017;-68
2022/12/17 17:08:55;;;;;;;9.13;5.32;;;1.40;99.90;;;;;;5058652;28;20099;-68
2022/12/17 17:11:23;;;;;;;9.48;5.30;;;1.40;99.90;;;;;;5058406;28;20041;-68
2022/12/17 17:13:51;;;;;;;8.35;5.32;;;1.40;99.90;;;;;;5061899;28;20116;-68
2022/12/17 17:16:19;;;;;;;7.63;5.00;;;1.40;99.70;;;;;;5042426;28;20017;-68
2022/12/17 17:18:45;;;;;;;9.23;5.53;;;1.40;99.90;;;;;;5045297;28;20112;-68
2022/12/17 17:21:34;;;;;;;9.13;5.95;;;1.40;99.80;;;;;;5042706;28;20021;-67
2022/12/17 17:24:11;;;;;;;7.63;4.80;;;1.30;99.70;;;;;;5067172;28;20558;-68
2022/12/17 17:26:37;;;;;;;9.65;5.78;;;1.40;99.90;;;;;;5065594;28;20036;-68
2022/12/17 17:29:04;;;;;;;8.73;5.75;;;1.40;99.80;;;;;;5066385;28;20156;-67
2022/12/17 17:31:30;;;;;;;8.07;4.82;;;1.40;99.90;;;;;;5067395;28;20052;-68
2022/12/17 17:33:56;;;;;;;8.82;5.50;;;1.40;99.70;;;;;;5066959;28;20112;-68
2022/12/17 17:36:27;;;;;;;9.70;5.20;;;1.40;99.60;;;;;;5060699;28;20107;-68
2022/12/17 17:38:54;;;;;;;8.20;4.93;;;1.40;99.60;;;;;;5057863;28;20029;-68
2022/12/17 17:41:22;;;;;;;9.35;5.20;;;1.30;99.60;;;;;;5039972;28;20025;-68
2022/12/17 17:43:55;;;;;;;8.32;5.35;;;1.40;99.70;;;;;;5058017;28;20021;-67
2022/12/17 17:46:21;;;;;;;;;;;1.40;99.80;;;;;;5058187;28;20025;-68
2022/12/17 17:48:48;;;;;;;7.97;5.03;;;1.40;99.90;;;;;;5057915;28;20376;-68
2022/12/17 17:51:14;;;;;;;8.75;4.85;;;1.40;99.90;;;;;;5070935;28;20078;-68
2022/12/17 17:53:41;;;;;;;8.18;5.07;;;1.40;99.90;;;;;;5039823;28;20025;-68
2022/12/17 17:56:15;;;;;;;7.22;4.45;;;1.50;99.90;;;;;;5057650;28;20024;-68
2022/12/17 17:58:50;;;;;;;9.38;5.13;;;1.50;99.90;;;;;;5039431;28;20021;-68
2022/12/17 18:01:21;;;;;;;9.93;6.15;;;1.50;99.70;;;;;;5057296;28;20025;-68
2022/12/17 18:03:47;;;;;;;8.93;5.50;;;1.50;99.40;;;;;;5057633;28;20033;-68
2022/12/17 18:06:13;;;;;;;8.43;5.20;;;1.40;99.40;;;;;;5057686;28;20021;-68
2022/12/17 18:08:40;;;;;;;7.05;4.72;;;1.40;99.80;;;;;;5057399;28;20052;-68
2022/12/17 18:11:09;;;;;;;8.52;5.72;;;1.40;99.70;;;;;;5057277;28;20045;-68
2022/12/17 18:16:20;;;;;;;10.13;5.78;;;1.40;99.30;;;;;;5057561;28;20032;-68
2022/12/17 18:18:46;;;;;;;8.15;5.55;;;1.30;99.30;;;;;;5057229;28;20029;-68
2022/12/17 18:21:13;;;;;;;10.23;5.70;;;1.30;99.50;;;;;;5057476;28;20028;-68
2022/12/17 18:23:40;;;;;;;9.40;5.90;;;1.30;99.60;;;;;;5056529;28;20405;-68
2022/12/17 18:26:15;;;;;;;10.80;6.35;;;1.30;99.50;;;;;;5038610;28;20021;-68
2022/12/17 18:28:42;;;;;;;10.93;5.75;;;1.40;99.80;;;;;;5056718;28;20055;-68
2022/12/17 18:31:09;;;;;;;9.52;5.80;;;1.30;99.50;;;;;;5039285;28;20017;-67
2022/12/17 18:33:37;;;;;;;9.93;6.30;;;1.30;99.60;;;;;;5038611;28;20032;-68
2022/12/17 18:36:08;;;;;;;9.35;5.88;;;1.40;99.60;;;;;;5057049;28;20401;-68
2022/12/17 18:38:33;;;;;;;10.98;6.55;;;1.30;99.30;;;;;;5063361;28;20112;-67
2022/12/17 18:43:21;;;;;;;10.18;6.30;;;1.30;99.40;;;;;;5065401;28;20067;-67
2022/12/17 18:43:53;;;;;;;8.55;5.93;;;1.30;99.40;;;;;;5065220;28;20076;-68
2022/12/17 18:46:19;;;;;;;8.80;5.47;;;1.30;99.60;;;;;;5064811;28;20025;-68
2022/12/17 18:48:45;;;;;;;8.95;5.43;;;1.30;99.40;;;;;;5067013;28;20042;-68
2022/12/17 18:51:10;;;;;;;6.95;4.45;;;1.30;99.50;;;;;;5062678;28;20571;-67
2022/12/17 18:53:36;;;;;;;8.18;4.80;;;1.40;99.90;;;;;;5066071;28;20021;-68
2022/12/17 18:56:09;;;;;;;8.20;4.70;;;1.40;99.60;;;;;;5064202;28;20017;-68
2022/12/17 18:58:35;;;;;;;;;;;1.40;99.60;;;;;;5063729;28;20017;-67
2022/12/17 19:01:01;;;;;;;7.45;4.32;;;1.40;99.70;;;;;;5062745;28;20469;-67
2022/12/17 19:03:26;;;;;;;7.03;4.70;;;1.40;99.40;;;;;;5040568;28;20021;-67
2022/12/17 19:05:52;;;;;;;7.07;4.45;;;1.40;99.20;;;;;;5066639;28;20099;-67
2022/12/17 19:08:18;;;;;;;6.10;4.15;;;1.30;99.20;;;;;;5066099;28;20021;-67
2022/12/17 19:10:43;;;;;;;8.93;5.85;;;1.40;99.40;;;;;;5042951;28;20073;-67
2022/12/17 19:13:09;;;;;;;9.35;5.95;;;1.30;99.50;;;;;;5065092;28;20143;-67
2022/12/17 19:15:35;;;;;;;7.72;5.25;;;1.30;99.50;;;;;;5062889;28;20043;-68
2022/12/17 19:18:00;;;;;;;9.38;5.80;;;1.30;99.30;;;;;;5045861;28;20029;-67
2022/12/17 19:20:26;;;;;;;7.82;5.45;;;1.30;99.20;;;;;;5066219;28;20396;-67
2022/12/17 19:22:52;;;;;;;10.05;5.68;;;1.30;99.00;;;;;;5065532;28;20021;-67
2022/12/17 19:25:17;;;;;;;8.68;5.35;;;1.30;99.10;;;;;;5064638;28;20389;-67
2022/12/17 19:27:43;;;;;;;9.57;6.05;;;1.20;99.00;;;;;;5064507;28;20500;-67
2022/12/17 19:30:10;;;;;;;10.00;5.93;;;1.20;99.00;;;;;;5043349;28;20020;-67
2022/12/17 19:32:36;;;;;;;9.55;5.60;;;1.10;98.90;;;;;;5061869;28;20381;-66
2022/12/17 19:35:01;;;;;;;9.02;6.18;;;1.10;99.10;;;;;;5063049;28;20096;-67
2022/12/17 19:37:27;;;;;;;7.32;5.15;;;1.00;99.00;;;;;;5045442;28;20024;-67
2022/12/17 19:39:53;;;;;;;6.47;4.25;;;1.00;99.20;;;;;;5042241;28;20031;-67
2022/12/17 19:42:24;;;;;;;7.88;5.38;;;1.00;99.20;;;;;;5067871;28;20104;-67
2022/12/17 19:44:51;;;;;;;8.77;5.47;;;1.00;99.00;;;;;;5049269;28;20033;-67
2022/12/17 19:47:17;;;;;;;6.90;4.88;;;0.90;99.00;;;;;;5068904;28;20052;-67
2022/12/17 19:49:43;;;;;;;9.40;5.00;;;0.90;99.30;;;;;;5046138;28;20040;-67
2022/12/17 19:52:08;;;;;;;8.38;4.60;;;1.00;99.20;;;;;;5044481;28;20047;-67
2022/12/17 19:54:34;;;;;;;8.75;5.57;;;0.90;99.10;;;;;;5069332;28;20052;-67
2022/12/17 19:57:00;;;;;;;8.57;5.05;;;0.90;99.30;;;;;;5045332;28;20393;-67
2022/12/17 19:59:27;;;;;;;8.90;5.15;;;0.90;99.10;;;;;;5068956;28;20035;-68
2022/12/17 20:01:53;;;;;;;9.05;5.30;;;0.80;99.10;;;;;;5063236;28;20028;-67
2022/12/17 20:04:19;;;;;;;7.82;5.25;;;0.80;99.10;;;;;;5068906;28;20049;-69
2022/12/17 20:06:45;;;;;;;9.23;5.72;;;0.80;99.10;;;;;;5067509;28;20036;-67
2022/12/17 20:09:11;;;;;;;7.75;5.22;;;0.80;99.10;;;;;;5068658;28;20108;-67
2022/12/17 20:11:37;;;;;;;10.63;5.57;;;0.80;99.20;;;;;;5030214;28;20068;-67
2022/12/17 20:14:12;;;;;;;8.55;4.85;;;0.70;99.30;;;;;;5045069;28;20026;-67
2022/12/17 20:16:39;;;;;;;8.10;5.32;;;0.70;99.30;;;;;;5043765;28;20028;-67
2022/12/17 20:19:09;;;;;;;8.73;5.50;;;0.70;99.30;;;;;;5039635;28;20036;-67
2022/12/17 20:21:35;;;;;;;8.88;5.43;;;0.70;99.40;;;;;;5039953;28;20025;-67
2022/12/17 20:24:01;;;;;;;9.52;5.20;;;0.70;99.20;;;;;;5022121;28;20037;-67
2022/12/17 20:26:27;;;;;;;8.27;5.07;;;0.70;99.40;;;;;;5041315;28;20026;-67
2022/12/17 20:28:54;;;;;;;8.77;5.82;;;0.70;99.30;;;;;;5046346;28;20024;-67
2022/12/17 20:31:20;;;;;;;10.13;5.78;;;0.60;99.30;;;;;;5029756;28;20026;-67
2022/12/17 20:33:45;;;;;;;9.35;5.88;;;0.60;99.40;;;;;;5045692;28;20028;-67
2022/12/17 20:36:14;;;;;;;10.20;5.55;;;0.60;99.30;;;;;;5047396;28;20520;-67
2022/12/17 20:38:41;;;;;;;9.27;5.28;;;0.60;99.30;;;;;;5025993;28;20033;-67
2022/12/17 20:41:16;;;;;;;8.65;5.18;;;0.60;99.40;;;;;;5047067;28;20021;-67
2022/12/17 20:43:42;;;;;;;8.75;5.70;;;0.50;99.30;;;;;;5028793;28;20036;-67
2022/12/17 20:46:08;;;;;;;9.70;5.30;;;0.50;99.40;;;;;;5045845;28;20405;-67
2022/12/17 20:48:35;;;;;;;9.48;5.05;;;0.50;99.40;;;;;;5041724;28;20018;-67
2022/12/17 20:51:09;;;;;;;9.27;5.45;;;0.50;99.50;;;;;;5039133;28;20037;-67
2022/12/17 20:53:35;;;;;;;9.27;5.32;;;0.50;99.50;;;;;;5039267;28;20053;-67
2022/12/17 20:56:12;;;;;;;10.20;5.05;;;0.50;99.50;;;;;;5039002;28;20104;-67
2022/12/17 20:58:39;;;;;;;8.50;5.20;;;0.50;99.50;;;;;;5038875;28;20111;-67
2022/12/17 21:01:12;;;;;;;8.55;5.57;;;0.50;99.70;;;;;;5038968;28;20104;-67
2022/12/17 21:03:38;;;;;;;8.68;5.28;;;0.50;99.90;;;;;;5039089;28;20091;-67
2022/12/17 21:06:16;;;;;;;8.65;5.07;;;0.50;99.50;;;;;;5038976;28;20025;-67
2022/12/17 21:08:42;;;;;;;8.57;5.28;;;0.50;99.60;;;;;;5039041;28;20092;-67
2022/12/17 21:11:09;;;;;;;8.55;5.53;;;0.50;99.50;;;;;;5021121;28;20041;-67
2022/12/17 21:13:36;;;;;;;10.13;5.60;;;0.40;99.50;;;;;;5038860;28;20041;-67
2022/12/17 21:16:08;;;;;;;9.57;5.57;;;0.40;99.60;;;;;;5038988;28;20501;-67
2022/12/17 21:18:34;;;;;;;10.43;5.22;;;0.40;99.50;;;;;;5038344;28;20032;-68
2022/12/17 21:21:05;;;;;;;10.05;5.85;;;0.40;99.70;;;;;;5038637;28;20544;-68
2022/12/17 21:23:33;;;;;;;11.88;6.88;;;0.40;99.70;;;;;;5038408;28;20029;-68
2022/12/17 21:26:04;;;;;;;11.23;6.10;;;0.40;99.70;;;;;;5038352;28;20030;-68
2022/12/17 21:28:31;;;;;;;9.32;5.80;;;0.30;99.90;;;;;;5038098;28;20049;-68
2022/12/17 21:30:57;;;;;;;10.57;6.43;;;0.40;99.90;;;;;;5038370;28;20053;-68
2022/12/17 21:33:22;;;;;;;8.95;5.72;;;0.30;99.90;;;;;;5038119;28;20025;-68
2022/12/17 21:35:48;;;;;;;11.43;5.95;;;0.30;99.70;;;;;;5038274;28;20072;-68
2022/12/17 21:38:14;;;;;;;9.98;5.97;;;0.30;99.70;;;;;;5020258;28;20029;-68
2022/12/17 21:40:40;;;;;;;10.23;5.85;;;0.30;99.70;;;;;;5038224;28;20026;-68
2022/12/17 21:43:07;;;;;;;9.50;5.82;;;0.30;99.80;;;;;;5037800;28;20525;-68
2022/12/17 21:45:37;;;;;;;11.18;5.45;;;0.20;99.90;;;;;;5020386;28;20030;-67
2022/12/17 21:48:08;;;;;;;10.00;5.80;;;0.20;99.80;;;;;;5019971;28;20049;-68
2022/12/17 21:50:37;;;;;;;8.40;5.20;;;0.20;99.90;;;;;;5020211;28;20048;-68
2022/12/17 21:53:03;;;;;;;10.70;6.18;;;0.20;99.90;;;;;;5037775;28;20025;-67
2022/12/17 21:55:29;;;;;;;9.57;5.70;;;0.20;99.90;;;;;;5037935;28;20025;-68
2022/12/17 21:57:57;;;;;;;10.68;6.18;;;0.20;99.90;;;;;;5037424;28;20037;-68
2022/12/17 22:00:23;;;;;;;10.60;6.13;;;0.20;99.90;;;;;;5037899;28;20029;-68
2022/12/17 22:02:48;;;;;;;9.60;5.70;;;0.20;99.90;;;;;;5037370;28;20452;-68
2022/12/17 22:05:14;;;;;;;10.05;5.68;;;0.20;99.90;;;;;;5037786;28;20053;-68
2022/12/17 22:07:39;;;;;;;9.55;5.60;;;0.20;99.90;;;;;;5044774;28;20036;-68
2022/12/17 22:10:06;;;;;;;8.90;5.68;;;0.20;99.90;;;;;;5040809;28;20048;-68
2022/12/17 22:15:15;;;;;;;9.43;5.65;;;0.10;99.90;;;;;;5074955;28;20085;-68
2022/12/17 22:17:41;;;;;;;9.43;5.82;;;0.10;99.90;;;;;;5077060;28;20056;-68
2022/12/17 22:20:07;;;;;;;10.98;5.80;;;0.10;99.90;;;;;;5059373;28;20035;-68
2022/12/17 22:22:33;;;;;;;12.05;5.97;;;0.10;99.90;;;;;;5077637;28;20028;-68
2022/12/17 22:24:59;;;;;;;10.07;5.82;;;0.10;99.90;;;;;;5076493;28;20047;-67
2022/12/17 22:27:25;;;;;;;10.43;6.20;;;0.10;99.90;;;;;;5058996;28;20036;-68
2022/12/17 22:35:19;;;;;;;10.15;6.30;;;0.10;99.90;;;;;;5075941;28;20032;-68
2022/12/17 22:37:45;;;;;;;9.70;5.63;;;0.10;99.90;;;;;;5076096;28;20021;-68
2022/12/17 22:40:11;;;;;;;9.05;5.15;;;0.10;99.90;;;;;;5075905;28;20036;-68
2022/12/17 22:45:21;;;;;;;8.13;5.30;;;0.10;99.90;;;;;;5068334;28;20039;-68
2022/12/17 22:47:46;;;;;;;11.35;6.05;;;0.00;99.90;;;;;;5076833;28;20099;-68
2022/12/17 22:50:12;;;;;;;10.73;6.68;;;0.10;99.90;;;;;;5076993;28;20456;-68
2022/12/17 22:52:38;;;;;;;12.02;6.55;;;0.00;99.90;;;;;;5077213;28;20511;-67
2022/12/17 22:55:04;;;;;;;11.30;6.13;;;0.00;99.90;;;;;;5077175;28;20024;-68
2022/12/17 22:57:30;;;;;;;10.50;6.40;;;0.00;99.90;;;;;;5058878;28;20496;-67
2022/12/17 22:59:56;;;;;;;9.52;5.53;;;0.00;99.90;;;;;;5077159;28;20024;-68
2022/12/17 23:02:22;;;;;;;10.55;5.93;;;0.00;99.90;;;;;;5076902;28;20056;-68
2022/12/17 23:04:47;;;;;;;9.90;5.82;;;0.00;99.90;;;;;;5059119;28;20040;-68
2022/12/17 23:07:13;;;;;;;11.60;5.93;;;-0.10;99.90;;;;;;5076867;28;20392;-68
2022/12/17 23:09:39;;;;;;;10.23;5.53;;;-0.10;99.90;;;;;;5076922;28;20048;-68
2022/12/17 23:14:49;;;;;;;10.18;5.45;;;-0.10;99.90;;;;;;5081250;28;20031;-68
2022/12/17 23:17:15;;;;;;;9.90;5.38;;;-0.10;99.90;;;;;;5080784;28;20095;-68
2022/12/17 23:19:40;;;;;;;10.77;5.65;;;-0.10;99.90;;;;;;5080880;28;20052;-67
2022/12/17 23:22:06;;;;;;;9.43;5.90;;;-0.10;99.90;;;;;;5080751;28;20024;-68
2022/12/17 23:24:31;;;;;;;11.05;6.05;;;-0.10;99.90;;;;;;5080822;28;20039;-67
2022/12/17 23:26:57;;;;;;;10.82;6.60;;;-0.10;99.90;;;;;;5080465;28;20069;-67
2022/12/17 23:29:23;;;;;;;9.77;6.18;;;-0.20;99.90;;;;;;5080679;28;20036;-68
2022/12/17 23:31:48;;;;;;;9.98;5.32;;;-0.20;99.90;;;;;;5080136;28;20021;-67
2022/12/17 23:34:14;;;;;;;8.75;5.65;;;-0.20;99.90;;;;;;5080595;28;20024;-68
2022/12/17 23:36:40;;;;;;;10.75;5.82;;;-0.20;99.90;;;;;;5080023;28;20024;-67
2022/12/17 23:39:06;;;;;;;12.35;6.00;;;-0.10;99.90;;;;;;5080456;28;20044;-68
2022/12/17 23:41:32;;;;;;;10.25;5.85;;;-0.10;99.90;;;;;;5080089;28;20053;-68
2022/12/17 23:43:58;;;;;;;8.93;5.45;;;-0.10;99.90;;;;;;5080481;28;20070;-68
2022/12/17 23:46:26;;;;;;;9.65;5.28;;;-0.10;99.90;;;;;;5079932;28;20024;-68
2022/12/17 23:48:53;;;;;;;9.30;5.85;;;-0.10;99.90;;;;;;5062193;28;20020;-68
2022/12/17 23:51:20;;;;;;;9.93;5.78;;;-0.10;99.90;;;;;;5080116;28;20037;-67
2022/12/17 23:53:46;;;;;;;11.18;6.20;;;-0.10;99.90;;;;;;5080273;28;20366;-67
2022/12/17 23:56:20;;;;;;;11.05;6.72;;;-0.20;99.90;;;;;;5079817;28;20032;-68
2022/12/17 23:58:50;;;;;;;10.63;6.38;;;-0.20;99.90;;;;;;5080107;28;20056;-67
